Time;durP1;ratioP1;P1;durP2;ratioP2;P2;SDS_P1;SDS_P2;PMS_P1;PMS_P2;Temp;Humidity;BMP_temperature;BMP_pressure;BME280_temperature;BME280_humidity;BME280_pressure;Samples;Min_cycle;Max_cycle;Signal;HPM_P1;HPM_P2
2022/05/27 00:00:10;;;;;;;8.30;6.57;;;;;;;18.20;60.13;95348.00;5114849;28;20097;-71
2022/05/27 00:02:36;;;;;;;7.22;6.40;;;;;;;18.16;60.23;95344.03;5112944;28;20048;-71
2022/05/27 00:05:01;;;;;;;7.57;6.22;;;;;;;18.08;60.29;95342.22;5114486;28;20105;-71
2022/05/27 00:07:27;;;;;;;7.63;6.80;;;;;;;18.13;60.57;95343.53;5096083;28;20040;-71
2022/05/27 00:09:52;;;;;;;8.65;6.50;;;;;;;18.14;60.39;95339.94;5114466;28;20390;-71
2022/05/27 00:12:18;;;;;;;7.07;5.93;;;;;;;18.15;60.21;95331.88;5113055;28;20038;-71
2022/05/27 00:14:43;;;;;;;7.47;6.70;;;;;;;18.14;60.60;95343.41;5113093;28;20035;-71
2022/05/27 00:17:09;;;;;;;8.35;6.75;;;;;;;18.09;60.83;95337.78;5114290;28;20522;-71
2022/05/27 00:19:34;;;;;;;7.95;6.43;;;;;;;18.13;60.45;95339.09;5112869;28;20024;-71
2022/05/27 00:22:00;;;;;;;10.18;6.40;;;;;;;18.17;60.52;95345.72;5114140;28;20035;-71
2022/05/27 00:24:25;;;;;;;10.05;6.00;;;;;;;18.16;60.55;95336.16;5114001;28;20043;-71
2022/05/27 00:26:50;;;;;;;7.25;6.47;;;;;;;18.22;60.28;95339.94;5114015;28;20028;-71
2022/05/27 00:29:16;;;;;;;6.90;5.95;;;;;;;18.14;60.20;95330.25;5114053;28;20047;-71
2022/05/27 00:31:41;;;;;;;6.50;5.55;;;;;;;18.18;60.28;95339.44;5113656;27;20032;-71
2022/05/27 00:34:09;;;;;;;9.75;5.93;;;;;;;18.12;60.46;95329.59;5095725;28;20043;-71
2022/05/27 00:36:35;;;;;;;5.82;5.30;;;;;;;18.04;60.60;95333.00;5113806;28;20028;-71
2022/05/27 00:39:02;;;;;;;7.57;5.38;;;;;;;17.95;60.91;95333.97;5112552;28;20085;-72
2022/05/27 00:41:27;;;;;;;7.65;5.30;;;;;;;17.84;61.07;95336.91;5095567;28;20069;-71
2022/05/27 00:43:53;;;;;;;6.38;5.57;;;;;;;17.82;61.32;95331.78;5112386;28;20085;-71
2022/05/27 00:46:21;;;;;;;6.55;5.40;;;;;;;17.71;61.72;95333.84;5112238;28;20028;-71
2022/05/27 00:48:48;;;;;;;7.05;5.40;;;;;;;17.70;61.78;95332.22;5095490;28;20527;-71
2022/05/27 00:51:19;;;;;;;5.63;4.88;;;;;;;17.55;61.55;95318.84;5095468;28;20036;-71
2022/05/27 00:53:59;;;;;;;6.60;5.70;;;;;;;17.44;62.60;95335.72;5095517;28;20039;-71
2022/05/27 00:56:26;;;;;;;8.07;5.50;;;;;;;17.37;62.32;95338.13;5096711;28;20031;-71
2022/05/27 00:58:58;;;;;;;5.55;4.63;;;;;;;17.33;62.20;95344.69;5095386;28;20032;-71
2022/05/27 01:01:23;;;;;;;5.22;4.45;;;;;;;17.28;62.77;95341.69;5112131;28;20554;-71
2022/05/27 01:03:49;;;;;;;4.45;4.05;;;;;;;17.13;62.61;95338.81;5094847;28;20059;-71
2022/05/27 01:06:14;;;;;;;8.85;4.40;;;;;;;16.98;63.30;95332.47;5094793;28;20495;-71
2022/05/27 01:08:39;;;;;;;6.95;4.30;;;;;;;17.00;63.33;95334.97;5112002;28;20031;-71
2022/05/27 01:11:36;;;;;;;4.93;4.40;;;;;;;17.01;63.42;95339.22;5095070;28;20072;-71
2022/05/27 01:14:14;;;;;;;4.70;4.20;;;;;;;16.97;63.60;95329.03;5113100;28;20118;-71
2022/05/27 01:16:53;;;;;;;7.55;4.35;;;;;;;16.84;64.00;95331.22;5111779;28;20035;-71
2022/05/27 01:22:18;;;;;;;8.05;4.80;;;;;;;16.62;64.58;95324.63;5112998;28;20122;-72
2022/05/27 01:25:16;;;;;;;5.28;3.85;;;;;;;16.48;64.37;95323.38;5111513;28;20571;-72
2022/05/27 01:27:47;;;;;;;4.70;3.97;;;;;;;16.33;65.03;95314.41;5112423;28;20050;-71
2022/05/27 01:30:33;;;;;;;5.40;4.88;;;;;;;16.23;66.19;95316.28;5112719;28;20031;-71
2022/05/27 01:33:11;;;;;;;5.13;4.25;;;;;;;16.20;65.98;95321.81;5095792;28;20061;-71
2022/05/27 01:35:46;;;;;;;5.13;3.80;;;;;;;16.18;65.49;95314.09;5111468;28;20035;-71
2022/05/27 01:38:15;;;;;;;5.57;4.00;;;;;;;15.94;66.24;95306.81;5111559;28;20035;-72
2022/05/27 01:41:25;;;;;;;6.07;4.22;;;;;;;16.01;66.21;95315.72;5111378;28;20028;-71
2022/05/27 01:43:56;;;;;;;6.35;3.97;;;;;;;16.03;66.12;95311.16;5110946;28;20117;-71
2022/05/27 01:46:37;;;;;;;5.80;4.90;;;;;;;15.97;66.28;95309.16;5091706;28;20154;-71
2022/05/27 01:49:37;;;;;;;8.40;5.00;;;;;;;16.08;65.87;95308.94;5073860;28;20040;-71
2022/05/27 01:52:22;;;;;;;5.47;4.43;;;;;;;16.13;66.20;95315.50;5092123;28;20039;-71
2022/05/27 01:55:06;;;;;;;4.85;4.22;;;;;;;16.11;66.12;95309.63;5090675;28;20039;-71
2022/05/27 01:57:50;;;;;;;4.32;3.80;;;;;;;16.14;66.11;95307.50;5092045;28;20116;-71
2022/05/27 02:00:21;;;;;;;6.85;4.80;;;;;;;16.09;66.30;95313.19;5090732;28;20551;-71
2022/05/27 02:03:24;;;;;;;5.75;4.55;;;;;;;15.98;66.18;95313.41;5090237;28;20555;-71
2022/05/27 02:06:30;;;;;;;7.65;5.00;;;;;;;15.96;66.42;95310.09;5091742;28;20039;-71
2022/05/27 02:09:04;;;;;;;6.63;4.95;;;;;;;15.90;66.33;95315.13;5090556;28;20031;-71
2022/05/27 02:11:30;;;;;;;5.53;5.03;;;;;;;15.84;66.38;95313.91;5073581;28;20446;-71
2022/05/27 02:14:07;;;;;;;10.00;4.85;;;;;;;15.86;66.73;95309.34;5091833;28;20093;-71
2022/05/27 02:16:38;;;;;;;5.45;4.63;;;;;;;15.94;66.31;95309.44;5090134;28;20450;-71
2022/05/27 02:19:12;;;;;;;5.25;4.63;;;;;;;15.93;65.96;95310.41;5089726;28;20055;-71
2022/05/27 02:21:45;;;;;;;7.80;4.78;;;;;;;15.96;65.62;95301.41;5091413;28;20020;-71
2022/05/27 02:24:36;;;;;;;6.75;4.90;;;;;;;16.00;65.53;95303.59;5090708;28;20035;-71
2022/05/27 02:27:08;;;;;;;6.95;5.20;;;;;;;15.98;65.58;95302.91;5091215;28;20055;-71
2022/05/27 02:29:34;;;;;;;5.38;4.88;;;;;;;15.99;65.78;95308.97;5107100;28;20320;-71
2022/05/27 02:32:24;;;;;;;7.07;4.95;;;;;;;15.99;65.71;95303.75;5090010;28;20032;-71
2022/05/27 02:35:10;;;;;;;6.10;4.90;;;;;;;16.00;65.60;95311.47;5090111;28;20035;-71
2022/05/27 02:37:43;;;;;;;5.50;4.90;;;;;;;15.99;65.22;95314.22;5090332;28;20037;-71
2022/05/27 02:40:16;;;;;;;5.57;4.47;;;;;;;15.82;66.21;95314.06;5090094;28;20089;-71
2022/05/27 02:43:04;;;;;;;5.50;4.90;;;;;;;15.78;66.41;95322.34;5089899;28;20504;-71
2022/05/27 02:45:35;;;;;;;5.35;4.20;;;;;;;15.72;66.85;95313.28;5091135;28;20044;-71
2022/05/27 02:48:25;;;;;;;6.60;5.00;;;;;;;15.70;67.08;95315.22;5106264;28;20024;-71
2022/05/27 02:51:19;;;;;;;6.67;5.53;;;;;;;15.71;66.92;95316.03;5110236;28;20038;-71
2022/05/27 02:54:11;;;;;;;7.57;5.60;;;;;;;15.72;67.08;95315.09;5111251;28;20348;-71
2022/05/27 02:56:46;;;;;;;4.75;4.05;;;;;;;15.63;66.83;95314.97;5110108;28;20038;-71
2022/05/27 02:59:14;;;;;;;6.65;4.28;;;;;;;15.52;66.71;95314.34;5110143;28;20035;-71
2022/05/27 03:01:39;;;;;;;5.50;4.32;;;;;;;15.56;66.79;95319.13;5092981;28;20032;-71
2022/05/27 03:04:05;;;;;;;5.97;4.70;;;;;;;15.55;67.42;95308.81;5109816;28;20032;-72
2022/05/27 03:06:57;;;;;;;6.60;4.50;;;;;;;15.61;67.19;95322.13;5076153;28;20037;-71
2022/05/27 03:09:49;;;;;;;6.32;4.80;;;;;;;15.57;67.58;95320.78;5110631;28;20284;-71
2022/05/27 03:12:47;;;;;;;5.53;4.50;;;;;;;15.64;66.52;95316.59;5110095;28;20031;-71
2022/05/27 03:15:12;;;;;;;5.38;3.80;;;;;;;15.61;66.40;95316.06;5108140;28;20116;-71
2022/05/27 03:18:14;;;;;;;5.88;3.85;;;;;;;15.61;66.11;95322.13;5110931;28;20481;-71
2022/05/27 03:20:51;;;;;;;6.55;4.18;;;;;;;15.68;65.63;95321.53;5109976;28;20081;-72
2022/05/27 03:23:43;;;;;;;4.10;3.67;;;;;;;15.74;66.05;95323.59;5076717;28;20031;-71
2022/05/27 03:26:50;;;;;;;5.40;3.90;;;;;;;15.81;65.45;95329.91;5101448;28;20039;-71
2022/05/27 03:29:46;;;;;;;5.60;4.43;;;;;;;15.82;65.64;95329.78;5110048;28;20048;-71
2022/05/27 03:32:25;;;;;;;5.18;3.78;;;;;;;15.92;65.17;95323.66;5114783;28;20082;-72
2022/05/27 03:34:55;;;;;;;5.38;3.90;;;;;;;15.95;65.35;95329.41;5113849;28;20040;-72
2022/05/27 03:37:34;;;;;;;5.40;4.15;;;;;;;16.03;65.03;95324.25;5113741;28;20093;-72
2022/05/27 03:40:08;;;;;;;6.25;4.00;;;;;;;16.11;64.36;95323.53;5098553;28;20036;-71
2022/05/27 03:42:34;;;;;;;5.07;4.00;;;;;;;16.13;64.89;95320.75;5113649;28;20061;-72
2022/05/27 03:45:04;;;;;;;7.40;4.00;;;;;;;16.11;64.81;95323.53;5113661;28;20028;-72
2022/05/27 03:47:29;;;;;;;4.65;3.95;;;;;;;16.01;65.44;95323.59;5102451;28;20020;-73
2022/05/27 03:49:55;;;;;;;4.93;3.78;;;;;;;15.99;66.40;95315.06;5093465;28;20547;-70
2022/05/27 03:52:23;;;;;;;5.32;4.35;;;;;;;16.12;66.39;95319.09;5093064;28;20486;-71
2022/05/27 03:54:48;;;;;;;8.07;4.22;;;;;;;16.19;64.81;95312.31;5092933;28;20040;-71
2022/05/27 03:57:14;;;;;;;8.20;3.95;;;;;;;16.37;64.33;95328.84;5076027;28;20097;-71
2022/05/27 03:59:39;;;;;;;4.50;3.90;;;;;;;16.46;64.95;95324.50;5076013;28;20047;-70
2022/05/27 04:02:05;;;;;;;5.45;4.47;;;;;;;16.59;63.04;95322.31;5093896;28;20048;-70
2022/05/27 04:04:30;;;;;;;5.60;4.18;;;;;;;16.80;62.22;95308.06;5094021;28;20024;-71
2022/05/27 04:06:55;;;;;;;5.53;4.28;;;;;;;17.36;61.98;95320.75;5092859;28;20444;-71
2022/05/27 04:09:22;;;;;;;5.55;3.95;;;;;;;17.71;61.22;95318.91;5092690;28;20436;-71
2022/05/27 04:11:47;;;;;;;7.38;4.72;;;;;;;18.07;60.24;95313.47;5092465;28;20118;-71
2022/05/27 04:14:13;;;;;;;9.18;4.53;;;;;;;18.43;59.89;95314.00;5075502;28;20157;-70
2022/05/27 04:16:38;;;;;;;7.38;4.20;;;;;;;18.96;57.15;95309.28;5094813;28;20500;-70
2022/05/27 04:19:04;;;;;;;8.90;4.60;;;;;;;19.40;55.69;95311.50;5114471;28;20019;-71
2022/05/27 04:21:29;;;;;;;6.13;5.25;;;;;;;19.50;55.73;95312.13;5095808;28;20405;-71
2022/05/27 04:23:55;;;;;;;9.80;5.00;;;;;;;19.90;54.73;95312.97;5093335;28;20115;-71
2022/05/27 04:26:20;;;;;;;6.65;5.05;;;;;;;20.31;53.17;95305.66;5093607;28;20029;-71
2022/05/27 04:28:46;;;;;;;6.88;4.60;;;;;;;20.58;52.44;95302.69;5102708;28;20137;-71
2022/05/27 04:31:11;;;;;;;14.82;4.95;;;;;;;20.83;51.86;95298.84;5095698;28;20517;-71
2022/05/27 04:33:37;;;;;;;7.93;5.20;;;;;;;21.17;51.73;95310.72;5095377;28;20055;-71
2022/05/27 04:36:03;;;;;;;6.47;4.50;;;;;;;21.62;50.83;95308.97;5113620;28;20027;-71
2022/05/27 04:38:28;;;;;;;8.52;4.90;;;;;;;22.04;49.57;95302.97;5112640;27;20469;-71
2022/05/27 04:40:53;;;;;;;9.45;4.95;;;;;;;22.23;48.86;95306.88;5111916;27;20515;-72
2022/05/27 04:43:19;;;;;;;6.35;4.93;;;;;;;22.61;47.81;95306.63;5112055;27;20461;-71
2022/05/27 04:45:44;;;;;;;9.30;6.22;;;;;;;22.75;47.86;95304.94;5111976;28;20031;-71
2022/05/27 04:48:10;;;;;;;9.02;5.50;;;;;;;22.02;49.04;95304.97;5116857;27;20118;-70
2022/05/27 04:50:36;;;;;;;8.18;5.38;;;;;;;21.23;51.79;95315.31;5111197;28;20036;-74
2022/05/27 04:53:02;;;;;;;11.30;5.90;;;;;;;20.91;52.17;95304.03;5090838;28;20071;-72
2022/05/27 04:55:30;;;;;;;8.93;5.53;;;;;;;20.79;52.68;95308.13;5112702;27;20511;-71
2022/05/27 04:57:56;;;;;;;13.32;5.57;;;;;;;20.94;52.51;95311.59;5112745;27;20024;-72
2022/05/27 05:00:23;;;;;;;15.07;6.32;;;;;;;20.99;52.63;95311.06;5097094;28;20504;-72
2022/05/27 05:02:48;;;;;;;10.93;5.75;;;;;;;20.95;52.62;95318.53;5111436;28;20040;-72
2022/05/27 05:05:15;;;;;;;14.75;6.22;;;;;;;21.10;51.63;95315.91;5110653;28;20519;-72
2022/05/27 05:07:41;;;;;;;13.75;6.75;;;;;;;21.01;51.36;95306.44;5093278;28;20170;-71
2022/05/27 05:10:09;;;;;;;16.15;7.40;;;;;;;21.08;52.12;95312.63;5087109;28;20043;-72
2022/05/27 05:12:34;;;;;;;9.77;6.20;;;;;;;21.21;51.29;95309.38;5095159;28;20454;-72
2022/05/27 05:14:59;;;;;;;9.93;6.13;;;;;;;21.36;50.66;95304.91;5113183;28;20087;-71
2022/05/27 05:17:25;;;;;;;10.10;7.28;;;;;;;21.42;51.06;95312.16;5113454;27;20417;-71
2022/05/27 05:19:55;;;;;;;16.63;8.15;;;;;;;21.45;51.15;95303.03;5113237;27;20037;-73
2022/05/27 05:22:22;;;;;;;11.13;7.20;;;;;;;21.58;51.16;95310.31;5121166;27;20114;-72
2022/05/27 05:24:47;;;;;;;14.60;7.25;;;;;;;21.56;50.94;95304.41;5094319;28;20095;-72
2022/05/27 05:27:13;;;;;;;10.63;6.93;;;;;;;21.55;51.23;95314.16;5110944;27;20447;-72
2022/05/27 05:29:38;;;;;;;18.95;7.70;;;;;;;21.59;51.07;95309.31;5105375;28;20024;-72
2022/05/27 05:32:04;;;;;;;14.75;7.60;;;;;;;21.75;50.82;95311.78;5105500;28;20031;-70
2022/05/27 05:34:30;;;;;;;11.05;6.43;;;;;;;21.83;51.05;95308.22;5102542;28;20035;-74
2022/05/27 05:36:56;;;;;;;15.95;6.88;;;;;;;21.79;51.27;95310.41;5095463;28;20028;-71
2022/05/27 05:39:22;;;;;;;12.90;6.40;;;;;;;21.81;50.65;95310.22;5108235;27;20034;-71
2022/05/27 05:41:58;;;;;;;11.00;6.70;;;;;;;21.72;50.42;95304.22;5109464;28;20122;-72
2022/05/27 05:44:24;;;;;;;8.98;6.38;;;;;;;21.62;50.64;95309.78;5110212;28;20059;-72
2022/05/27 05:46:50;;;;;;;12.05;6.25;;;;;;;21.69;51.16;95301.13;5110730;28;20382;-75
2022/05/27 05:49:16;;;;;;;10.98;5.97;;;;;;;21.91;49.65;95312.59;5110386;28;20039;-75
2022/05/27 05:51:41;;;;;;;10.65;5.05;;;;;;;21.91;50.21;95313.41;5109912;28;20059;-71
2022/05/27 05:54:07;;;;;;;9.18;5.00;;;;;;;22.07;48.96;95304.44;5110661;28;20040;-73
2022/05/27 05:56:33;;;;;;;8.15;4.90;;;;;;;22.11;47.08;95307.53;5110330;28;20038;-72
2022/05/27 05:58:59;;;;;;;10.20;4.53;;;;;;;22.17;47.37;95310.22;5111461;28;20073;-72
2022/05/27 06:01:24;;;;;;;6.78;4.85;;;;;;;22.33;47.99;95305.75;5111912;28;20072;-72
2022/05/27 06:03:49;;;;;;;8.98;4.90;;;;;;;22.41;47.33;95308.28;5110773;27;20048;-72
2022/05/27 06:06:15;;;;;;;9.05;5.93;;;;;;;22.51;46.97;95311.41;5102281;28;20024;-72
2022/05/27 06:08:40;;;;;;;10.25;5.13;;;;;;;22.56;47.58;95306.38;5103565;28;20035;-72
2022/05/27 06:11:07;;;;;;;13.38;4.90;;;;;;;22.54;46.21;95297.84;5102124;28;20016;-72
2022/05/27 06:13:35;;;;;;;11.45;5.03;;;;;;;22.71;45.76;95304.50;5106070;28;20417;-84
2022/05/27 06:16:01;;;;;;;19.92;5.80;;;;;;;22.86;45.96;95308.91;5080657;28;20059;-73
2022/05/27 06:18:27;;;;;;;12.05;5.60;;;;;;;22.87;45.90;95295.47;5100916;28;20040;-71
2022/05/27 06:20:52;;;;;;;8.32;5.22;;;;;;;22.83;46.05;95301.34;5091427;28;20409;-69
2022/05/27 06:23:18;;;;;;;10.52;4.97;;;;;;;22.86;46.05;95296.47;5106536;28;20035;-71
2022/05/27 06:25:43;;;;;;;8.52;4.22;;;;;;;22.84;45.62;95298.47;5110418;28;20031;-74
2022/05/27 06:36:21;;;;;;;9.32;4.40;;;;;;;23.04;44.92;95297.84;5113123;27;20030;-74
2022/05/27 06:38:46;;;;;;;7.95;4.20;;;;;;;23.12;45.43;95301.19;5081484;28;20028;-74
2022/05/27 06:41:12;;;;;;;9.85;3.78;;;;;;;23.27;45.24;95289.69;5092101;28;20050;-74
2022/05/27 06:43:38;;;;;;;7.07;4.00;;;;;;;23.47;44.26;95287.94;5109669;28;20038;-74
2022/05/27 06:46:03;;;;;;;6.78;4.20;;;;;;;23.59;43.48;95296.97;5110829;28;20019;-75
2022/05/27 06:48:29;;;;;;;8.80;4.28;;;;;;;23.73;43.27;95297.09;5076145;28;20477;-75
2022/05/27 06:50:54;;;;;;;15.77;4.15;;;;;;;23.86;44.02;95291.84;5076314;28;20389;-75
2022/05/27 06:53:20;;;;;;;9.05;3.20;;;;;;;24.06;41.79;95294.56;5110289;28;20385;-75
2022/05/27 06:55:49;;;;;;;6.55;3.33;;;;;;;24.19;42.00;95285.84;5110118;28;20024;-75
2022/05/27 06:58:15;;;;;;;6.00;3.50;;;;;;;24.39;41.73;95286.69;5076024;28;20035;-75
2022/05/27 07:00:41;;;;;;;6.93;3.25;;;;;;;24.49;40.86;95281.03;5091708;28;20058;-75
2022/05/27 07:03:07;;;;;;;7.90;3.28;;;;;;;24.41;40.65;95276.69;5106848;28;20074;-75
2022/05/27 07:05:33;;;;;;;6.80;3.47;;;;;;;24.37;41.19;95278.13;5109028;28;20500;-75
2022/05/27 07:07:58;;;;;;;10.65;3.08;;;;;;;24.41;39.99;95274.06;5109510;28;20035;-75
2022/05/27 07:10:24;;;;;;;6.82;3.10;;;;;;;24.45;40.11;95264.69;5107944;28;20031;-75
2022/05/27 07:12:49;;;;;;;5.50;2.95;;;;;;;24.47;39.19;95267.97;5107983;28;20034;-75
2022/05/27 07:15:16;;;;;;;7.50;3.28;;;;;;;24.57;40.05;95269.38;5091058;28;20473;-75
2022/05/27 07:17:42;;;;;;;5.85;2.92;;;;;;;24.67;39.59;95273.28;5109957;28;20164;-75
2022/05/27 07:20:08;;;;;;;7.90;3.00;;;;;;;24.74;39.21;95265.34;5111158;28;20107;-75
2022/05/27 07:22:33;;;;;;;9.43;3.53;;;;;;;24.82;38.72;95259.78;5108968;28;20432;-75
2022/05/27 07:24:59;;;;;;;6.40;3.40;;;;;;;24.88;40.03;95252.88;5092555;28;20071;-74
2022/05/27 07:27:24;;;;;;;8.70;3.17;;;;;;;25.04;39.82;95267.56;5109838;28;20032;-75
2022/05/27 07:29:50;;;;;;;11.02;3.60;;;;;;;24.97;38.51;95257.75;5109824;28;20032;-75
2022/05/27 07:32:15;;;;;;;8.00;3.50;;;;;;;24.83;39.02;95250.81;5109929;28;20481;-75
2022/05/27 07:34:41;;;;;;;9.50;3.20;;;;;;;24.83;39.63;95247.34;5110966;28;20413;-75
2022/05/27 07:37:06;;;;;;;4.68;3.35;;;;;;;24.83;39.35;95250.81;5109649;28;20485;-75
2022/05/27 07:39:32;;;;;;;6.53;3.38;;;;;;;24.93;38.82;95245.06;5110976;28;20020;-75
2022/05/27 07:41:57;;;;;;;6.63;3.22;;;;;;;25.10;38.43;95245.47;5092771;28;20176;-75
2022/05/27 07:44:23;;;;;;;9.38;3.53;;;;;;;25.21;39.27;95239.53;5109624;28;20100;-74
2022/05/27 07:46:51;;;;;;;9.23;3.65;;;;;;;25.23;38.96;95245.47;5109652;28;20024;-75
2022/05/27 07:49:16;;;;;;;10.68;3.78;;;;;;;25.11;38.24;95233.84;5092804;28;20080;-75
2022/05/27 07:51:42;;;;;;;8.38;3.88;;;;;;;24.89;38.59;95226.09;5109623;28;20036;-74
2022/05/27 07:54:07;;;;;;;7.05;3.60;;;;;;;25.01;39.14;95222.78;5091910;28;20394;-72
2022/05/27 07:56:33;;;;;;;11.38;3.83;;;;;;;25.06;38.50;95228.31;5109449;28;20500;-72
2022/05/27 07:58:58;;;;;;;7.82;3.80;;;;;;;25.00;38.22;95229.97;5106318;28;20024;-72
2022/05/27 08:01:23;;;;;;;6.88;3.58;;;;;;;25.04;39.18;95225.03;5089227;28;20028;-72
2022/05/27 08:03:49;;;;;;;6.88;3.92;;;;;;;25.20;38.20;95224.63;5072175;28;20048;-72
2022/05/27 08:06:14;;;;;;;7.45;3.80;;;;;;;25.22;37.96;95221.78;5107011;28;20459;-72
2022/05/27 08:08:40;;;;;;;9.63;3.67;;;;;;;25.26;38.10;95213.16;5109355;28;20043;-72
2022/05/27 08:11:07;;;;;;;7.93;3.40;;;;;;;25.40;37.42;95220.06;5108966;28;20023;-72
2022/05/27 08:13:33;;;;;;;5.40;3.22;;;;;;;25.41;36.71;95213.75;5091925;28;20424;-72
2022/05/27 08:15:58;;;;;;;9.82;3.65;;;;;;;25.43;36.53;95208.19;5109118;28;20477;-72
2022/05/27 08:18:24;;;;;;;10.15;3.60;;;;;;;25.55;36.52;95216.38;5114142;28;20039;-72
2022/05/27 08:20:50;;;;;;;9.50;3.70;;;;;;;25.54;36.76;95209.41;5111855;28;20456;-72
2022/05/27 08:23:15;;;;;;;8.63;3.80;;;;;;;25.51;36.23;95209.81;5095678;28;20027;-72
2022/05/27 08:25:40;;;;;;;9.10;3.80;;;;;;;25.49;37.79;95209.22;5095519;28;20044;-72
2022/05/27 08:28:06;;;;;;;9.27;4.03;;;;;;;25.50;37.29;95203.69;5095811;28;20049;-72
2022/05/27 08:30:34;;;;;;;8.45;4.05;;;;;;;25.47;37.80;95203.31;5112870;28;20020;-73
2022/05/27 08:32:59;;;;;;;6.30;4.20;;;;;;;25.48;38.16;95205.75;5114320;28;20059;-72
2022/05/27 08:38:11;;;;;;;12.52;4.53;;;;;;;25.66;37.72;95199.75;5113335;28;20046;-72
2022/05/27 08:40:59;;;;;;;9.82;3.97;;;;;;;25.67;36.92;95190.72;5095848;28;20126;-72
2022/05/27 08:43:35;;;;;;;5.90;3.70;;;;;;;25.75;37.32;95177.19;5095688;28;20040;-72
2022/05/27 08:46:48;;;;;;;7.25;4.00;;;;;;;25.93;36.58;95184.47;5112497;28;20031;-72
2022/05/27 08:49:17;;;;;;;11.15;4.75;;;;;;;25.84;35.43;95175.94;5111420;28;20534;-72
2022/05/27 08:52:01;;;;;;;9.93;4.45;;;;;;;25.87;36.49;95179.22;5095711;28;20063;-72
2022/05/27 08:54:33;;;;;;;9.57;4.60;;;;;;;25.66;36.84;95173.16;5113927;28;20072;-72
2022/05/27 09:00:00;;;;;;;8.27;4.50;;;;;;;25.83;37.38;95170.84;5113639;28;20030;-72
2022/05/27 09:02:28;;;;;;;13.85;4.32;;;;;;;26.01;36.85;95170.09;5113348;28;20054;-72
2022/05/27 09:05:27;;;;;;;11.88;4.35;;;;;;;26.14;36.40;95171.88;5112365;28;20104;-73
2022/05/27 09:08:11;;;;;;;11.35;4.20;;;;;;;26.32;36.55;95168.47;5103295;28;20137;-72
2022/05/27 09:10:51;;;;;;;12.52;4.20;;;;;;;26.45;35.92;95168.38;5113559;28;20028;-72
2022/05/27 09:13:28;;;;;;;8.80;4.13;;;;;;;26.53;35.25;95165.47;5114003;28;20069;-72
2022/05/27 09:15:53;;;;;;;13.75;4.55;;;;;;;26.55;33.52;95165.22;5112240;28;20019;-72
2022/05/27 09:18:37;;;;;;;6.60;4.13;;;;;;;26.64;34.53;95164.75;5113748;28;20028;-72
2022/05/27 09:21:26;;;;;;;7.25;4.20;;;;;;;26.66;34.58;95165.38;5113290;28;20063;-72
2022/05/27 09:24:09;;;;;;;9.98;4.50;;;;;;;26.72;34.37;95153.00;5112452;28;20503;-72
2022/05/27 09:27:12;;;;;;;11.88;4.20;;;;;;;26.78;34.23;95157.47;5112229;28;20101;-72
2022/05/27 09:30:02;;;;;;;8.45;4.30;;;;;;;26.66;34.64;95148.53;5111956;28;20512;-72
2022/05/27 09:32:58;;;;;;;6.80;3.85;;;;;;;26.67;33.96;95148.34;5111989;28;20651;-71
2022/05/27 09:36:01;;;;;;;16.05;4.65;;;;;;;26.84;34.25;95145.09;5107606;28;20120;-72
2022/05/27 09:38:29;;;;;;;9.73;4.03;;;;;;;26.90;33.52;95144.22;5112473;28;20056;-72
2022/05/27 09:40:56;;;;;;;7.00;4.53;;;;;;;27.03;33.76;95136.09;5111847;28;20036;-72
2022/05/27 09:43:41;;;;;;;6.97;4.28;;;;;;;27.09;33.92;95135.19;5112050;28;20039;-72
2022/05/27 09:46:10;;;;;;;8.88;4.53;;;;;;;27.25;33.97;95125.03;5111921;28;20107;-72
2022/05/27 09:48:36;;;;;;;10.02;4.43;;;;;;;27.31;32.81;95127.59;5111550;28;20036;-72
2022/05/27 09:51:03;;;;;;;9.52;4.82;;;;;;;27.21;33.61;95113.97;5111606;28;20019;-72
2022/05/27 09:53:32;;;;;;;7.15;4.78;;;;;;;27.24;33.71;95123.38;5111838;28;20104;-72
2022/05/27 09:56:04;;;;;;;9.18;4.30;;;;;;;27.31;33.49;95114.25;5094770;28;20039;-72
2022/05/27 09:58:38;;;;;;;9.98;4.63;;;;;;;27.36;33.23;95105.59;5094932;28;20397;-72
2022/05/27 10:01:18;;;;;;;12.25;4.47;;;;;;;27.47;34.07;95102.19;5111497;28;20081;-72
2022/05/27 10:03:43;;;;;;;8.50;4.53;;;;;;;27.63;35.08;95101.53;5111326;28;20061;-73
2022/05/27 10:06:11;;;;;;;15.30;4.63;;;;;;;27.68;34.43;95090.19;5112586;28;20023;-72
2022/05/27 10:08:56;;;;;;;8.25;4.45;;;;;;;27.66;33.38;95097.59;5094162;28;20519;-72
2022/05/27 10:11:29;;;;;;;10.13;4.57;;;;;;;27.70;33.17;95095.31;5097132;28;20031;-72
2022/05/27 10:14:10;;;;;;;12.90;4.85;;;;;;;27.76;33.93;95094.38;5111320;28;20028;-72
2022/05/27 10:16:36;;;;;;;11.00;4.57;;;;;;;27.85;33.64;95088.50;5111144;28;20038;-72
2022/05/27 10:19:14;;;;;;;6.57;4.47;;;;;;;28.00;34.23;95085.44;5112281;28;20108;-72
2022/05/27 10:22:00;;;;;;;9.48;4.80;;;;;;;28.14;33.42;95083.38;5111151;28;20031;-72
2022/05/27 10:24:29;;;;;;;8.52;4.40;;;;;;;28.06;33.96;95073.84;5111181;28;20028;-72
2022/05/27 10:27:21;;;;;;;12.37;5.53;;;;;;;28.29;33.21;95072.22;5111181;28;20049;-72
2022/05/27 10:30:00;;;;;;;10.70;4.65;;;;;;;28.32;32.66;95068.28;5112051;28;20036;-72
2022/05/27 10:32:33;;;;;;;9.88;4.72;;;;;;;28.37;31.84;95063.88;5111121;28;20118;-72
2022/05/27 10:35:11;;;;;;;8.32;4.47;;;;;;;28.42;32.38;95055.19;5112251;28;20031;-72
2022/05/27 10:37:58;;;;;;;7.40;4.55;;;;;;;28.57;31.97;95057.41;5111031;28;20039;-72
2022/05/27 10:40:40;;;;;;;12.65;4.75;;;;;;;28.57;31.05;95052.88;5111617;28;20079;-72
2022/05/27 10:43:15;;;;;;;9.50;4.82;;;;;;;28.40;30.60;95052.72;5093919;28;20408;-72
2022/05/27 10:45:43;;;;;;;13.85;4.68;;;;;;;28.39;32.53;95045.78;5110522;28;20059;-72
2022/05/27 10:48:21;;;;;;;9.10;4.10;;;;;;;28.44;32.73;95048.56;5110957;28;20080;-72
2022/05/27 10:50:54;;;;;;;9.32;4.32;;;;;;;28.50;32.61;95042.31;5112146;28;20483;-72
2022/05/27 10:53:25;;;;;;;10.90;4.85;;;;;;;28.63;32.22;95040.44;5110844;28;20031;-72
2022/05/27 10:56:21;;;;;;;10.25;4.47;;;;;;;28.65;32.12;95039.16;5111887;28;20053;-72
2022/05/27 11:02:04;;;;;;;18.30;4.78;;;;;;;28.70;31.75;95023.22;5112069;28;20104;-72
2022/05/27 11:04:48;;;;;;;9.45;4.22;;;;;;;28.68;31.36;95021.84;5111430;28;20058;-72
2022/05/27 11:07:31;;;;;;;9.95;3.92;;;;;;;28.76;31.08;95013.47;5111132;28;20409;-72
2022/05/27 11:10:18;;;;;;;9.75;4.63;;;;;;;28.81;31.89;95016.25;5110069;28;20024;-72
2022/05/27 11:16:09;;;;;;;10.10;4.18;;;;;;;28.88;31.54;95014.22;5110529;28;20034;-72
2022/05/27 11:18:41;;;;;;;7.43;3.97;;;;;;;28.89;30.68;95005.19;5109988;28;20039;-72
2022/05/27 11:21:46;;;;;;;8.82;4.00;;;;;;;28.95;29.76;95006.91;5093065;28;20024;-72
2022/05/27 11:24:24;;;;;;;12.70;4.57;;;;;;;28.95;29.66;94985.53;5111336;28;20031;-73
2022/05/27 11:27:18;;;;;;;13.65;3.85;;;;;;;28.94;30.50;94996.44;5111270;28;20031;-72
2022/05/27 11:30:17;;;;;;;8.05;3.78;;;;;;;29.00;29.73;94992.81;5102830;28;20096;-72
2022/05/27 11:33:16;;;;;;;8.75;3.78;;;;;;;29.05;30.25;94984.91;5095484;28;20134;-72
2022/05/27 11:35:48;;;;;;;11.32;3.80;;;;;;;29.12;29.46;94979.44;5111142;28;20100;-72
2022/05/27 11:38:34;;;;;;;16.98;4.03;;;;;;;29.09;29.53;94972.72;5109504;28;20085;-72
2022/05/27 11:41:00;;;;;;;10.70;4.07;;;;;;;29.17;29.57;94956.28;5101510;28;20024;-72
2022/05/27 11:43:46;;;;;;;10.90;3.63;;;;;;;29.11;29.78;94956.41;5109287;28;20112;-72
2022/05/27 11:46:31;;;;;;;10.65;3.72;;;;;;;29.27;29.25;94949.50;5107981;28;20441;-72
2022/05/27 11:49:23;;;;;;;10.35;3.70;;;;;;;29.31;29.21;94953.28;5109588;28;20062;-72
2022/05/27 11:52:03;;;;;;;8.32;3.83;;;;;;;29.32;29.88;94947.72;5110701;28;20177;-72
2022/05/27 11:54:49;;;;;;;9.65;3.85;;;;;;;29.34;30.01;94945.63;5114678;28;20465;-72
2022/05/27 11:57:37;;;;;;;10.75;4.00;;;;;;;29.15;28.76;94933.50;5083581;28;20089;-72
2022/05/27 12:00:12;;;;;;;9.98;3.92;;;;;;;29.07;29.65;94925.88;5122485;27;20409;-72
2022/05/27 12:02:53;;;;;;;8.85;3.97;;;;;;;29.14;29.77;94923.84;5113242;28;20047;-74
2022/05/27 12:05:25;;;;;;;13.00;4.10;;;;;;;29.19;29.98;94929.28;5112771;28;20031;-74
2022/05/27 12:08:10;;;;;;;14.57;4.28;;;;;;;29.22;29.55;94915.44;5092690;28;20047;-75
2022/05/27 12:10:47;;;;;;;15.27;4.65;;;;;;;29.20;30.24;94908.69;5107240;28;20027;-72
2022/05/27 12:13:12;;;;;;;16.00;4.30;;;;;;;29.30;30.52;94912.38;5095631;28;20106;-73
2022/05/27 12:16:01;;;;;;;14.50;4.35;;;;;;;29.39;29.64;94910.09;5113844;28;20119;-73
2022/05/27 12:18:55;;;;;;;10.77;4.10;;;;;;;29.43;29.98;94905.09;5113038;28;20401;-73
2022/05/27 12:21:26;;;;;;;10.30;4.70;;;;;;;29.41;29.04;94897.31;5095978;28;20358;-72